ADDS METAR Data INFO
IDs: Format: Raw Decoded Include TAF

Data at: 0326 UTC 19 Jul 2018

KMGN 190315Z AUTO 00000KT 10SM CLR 14/11 A3006 RMK AO2 T01470113
KMGN 190255Z AUTO 36003KT 10SM CLR 14/11 A3006 RMK AO2 T01460114
KMGN 190235Z AUTO 33004KT 10SM CLR 15/11 A3006 RMK AO2 T01530115
KMGN 190215Z AUTO 00000KT 10SM CLR 15/11 A3006 RMK AO2 T01500111
KMGN 190155Z AUTO 33003KT 10SM CLR 15/11 A3006 RMK AO2 T01580110
KMGN 190135Z AUTO 00000KT 10SM CLR 16/10 A3006 RMK AO2 T01590107
KMGN 190115Z AUTO 00000KT 10SM CLR 17/10 A3006 RMK AO2 T01710105
KMGN 190055Z AUTO 00000KT 10SM CLR 18/10 A3006 RMK AO2 T01820100
KMGN 190035Z AUTO 00000KT 10SM CLR 18/09 A3006 RMK AO2 T01900096
KMGN 190015Z AUTO 24004KT 10SM CLR 19/10 A3006 RMK AO2 T01920101
KMGN 182355Z AUTO 24004KT 10SM CLR 19/10 A3006 RMK AO2 T01960100
KMGN 182335Z AUTO 24004KT 10SM CLR 20/07 A3006 RMK AO2 T02050074
KMGN 182315Z AUTO 24004KT 10SM CLR 20/11 A3006 RMK AO2 T02020110
KMGN 182255Z AUTO 25005KT 10SM CLR 19/11 A3007 RMK AO2 T01970108
KMGN 182235Z AUTO 25004KT 10SM CLR 20/11 A3007 RMK AO2 T01990111
KMGN 182215Z AUTO 24007KT 10SM CLR 20/11 A3008 RMK AO2 T02010118
KMGN 182155Z AUTO 24005KT 10SM CLR 20/12 A3008 RMK AO2 T02010124
KMGN 182135Z AUTO 23004KT 10SM CLR 20/12 A3008 RMK AO2 T02020121
KMGN 182115Z AUTO 25005KT 10SM CLR 20/12 A3008 RMK AO2 T02060123
KMGN 182055Z AUTO 24006KT 10SM CLR 21/11 A3009 RMK AO2 T02100119
KMGN 182035Z AUTO 23006KT 10SM CLR 21/12 A3009 RMK AO2 T02120120
KMGN 182015Z AUTO 25005KT 10SM CLR 21/11 A3009 RMK AO2 T02120113
KMGN 181955Z AUTO 25006KT 10SM CLR 21/10 A3010 RMK AO2 T02110101
KMGN 181935Z AUTO 25006KT 10SM CLR 20/10 A3011 RMK AO2 T02060105
KMGN 181915Z AUTO 25006KT 10SM CLR 21/11 A3011 RMK AO2 T02120111
KMGN 181855Z AUTO 25005KT 10SM CLR 21/10 A3011 RMK AO2 T02090106
KMGN 181835Z AUTO 24006KT 210V280 10SM CLR 20/10 A3011 RMK AO2 T02050104
KMGN 181815Z AUTO 25006KT 10SM CLR 20/10 A3012 RMK AO2 T02070106
KMGN 181755Z AUTO 24007KT 10SM CLR 20/11 A3012 RMK AO2 T02020112
KMGN 181735Z AUTO 25006KT 10SM CLR 19/11 A3012 RMK AO2 T01950111
KMGN 181715Z AUTO 24006KT 10SM CLR 19/11 A3013 RMK AO2 T01950111
KMGN 181655Z AUTO 24006KT 10SM CLR 19/10 A3014 RMK AO2 T01920108
KMGN 181635Z AUTO 24007KT 210V280 10SM CLR 18/11 A3015 RMK AO2 T01890115
KMGN 181615Z AUTO 24007KT 10SM CLR 18/11 A3015 RMK AO2 T01900116
KMGN 181555Z AUTO 23008KT 210V270 10SM CLR 18/11 A3016 RMK AO2 T01910117
KMGN 181535Z AUTO 23009KT 10SM CLR 18/12 A3016 RMK AO2 T01840120
KMGN 181515Z AUTO 23009KT 10SM CLR 18/12 A3015 RMK AO2 T01810121
KMGN 181455Z AUTO 22008KT 10SM CLR 18/12 A3016 RMK AO2 T01820119
KMGN 181435Z AUTO 23006KT 200V260 10SM CLR 18/11 A3016 RMK AO2 T01860115
KMGN 181415Z AUTO 23004KT 10SM CLR 18/11 A3016 RMK AO2 T01800117
KMGN 181355Z AUTO 23006KT 10SM SCT024 17/11 A3016 RMK AO2 T01790115
KMGN 181335Z AUTO 23004KT 10SM CLR 17/11 A3016 RMK AO2 T01740109
KMGN 181315Z AUTO 23004KT 10SM CLR 16/10 A3016 RMK AO2 T01640107
KMGN 181255Z AUTO 00000KT 10SM CLR 15/11 A3016 RMK AO2 T01530108
KMGN 181235Z AUTO 00000KT 10SM CLR 14/10 A3016 RMK AO2 T01450101
KMGN 181215Z AUTO 00000KT 10SM CLR 13/09 A3016 RMK AO2 T01390092
KMGN 181155Z AUTO 00000KT 10SM CLR 12/10 A3015 RMK AO2 T01220103
KMGN 181135Z AUTO 00000KT 10SM CLR 11/08 A3015 RMK AO2 T01080084
KMGN 181115Z AUTO 00000KT 10SM CLR 09/08 A3015 RMK AO2 T00950086
KMGN 181055Z AUTO 00000KT 10SM CLR 08/07 A3014 RMK AO2 T00860080
KMGN 181035Z AUTO 34004KT 10SM CLR 08/07 A3014 RMK AO2 T00860080
KMGN 181015Z AUTO 00000KT 10SM CLR 08/08 A3014 RMK AO2 T00870081
KMGN 180955Z AUTO 36003KT 10SM CLR 08/07 A3014 RMK AO2 T00830077
KMGN 180935Z AUTO 00000KT 10SM CLR 08/07 A3014 RMK AO2 T00850080
KMGN 180915Z AUTO 36003KT 10SM CLR 08/08 A3014 RMK AO2 T00860081
KMGN 180855Z AUTO 02003KT 10SM CLR 08/08 A3013 RMK AO2 T00910086
KMGN 180835Z AUTO 00000KT 10SM CLR 08/08 A3014 RMK AO2 T00880083
KMGN 180815Z AUTO 00000KT 10SM CLR 09/08 A3014 RMK AO2 T00930087
KMGN 180755Z AUTO 00000KT 10SM CLR 10/08 A3014 RMK AO2 T00970086
KMGN 180735Z AUTO 00000KT 10SM CLR 09/08 A3014 RMK AO2 T00970089
KMGN 180715Z AUTO 00000KT 10SM CLR 10/09 A3014 RMK AO2 T01030092
KMGN 180655Z AUTO 00000KT 10SM CLR 11/08 A3013 RMK AO2 T01090090
KMGN 180635Z AUTO 06003KT 10SM CLR 11/08 A3013 RMK AO2 T01130090
KMGN 180615Z AUTO 04004KT 10SM CLR 11/09 A3013 RMK AO2 T01140097
KMGN 180555Z AUTO 00000KT 10SM CLR 11/10 A3013 RMK AO2 T01180100
KMGN 180535Z AUTO 03003KT 10SM CLR 11/10 A3013 RMK AO2 T01180101
KMGN 180515Z AUTO 35004KT 10SM CLR 12/10 A3013 RMK AO2 T01280099
KMGN 180455Z AUTO 33003KT 10SM CLR 12/10 A3013 RMK AO2 T01280101
KMGN 180435Z AUTO 31003KT 10SM CLR 13/10 A3013 RMK AO2 T01320104
KMGN 180415Z AUTO 00000KT 10SM CLR 13/11 A3012 RMK AO2 T01340108
KMGN 180355Z AUTO 00000KT 10SM CLR 14/10 A3012 RMK AO2 T01450107
KMGN 180335Z AUTO 33003KT 10SM CLR 14/11 A3012 RMK AO2 T01460110
KMGN 180316Z AUTO 00000KT 10SM CLR 15/11 A3011 RMK AO2 T01500109
KMGN 180255Z AUTO 00000KT 10SM CLR 15/10 A3011 RMK AO2 T01500107
KMGN 180235Z AUTO 00000KT 10SM CLR 15/10 A3011 RMK AO2 T01510105
KMGN 180215Z AUTO 00000KT 10SM CLR 15/10 A3010 RMK AO2 T01570107
KMGN 180155Z AUTO 00000KT 10SM CLR 16/10 A3009 RMK AO2 T01640105
KMGN 180135Z AUTO 00000KT 10SM CLR 17/10 A3008 RMK AO2 T01730106
KMGN 180115Z AUTO 00000KT 10SM CLR 17/10 A3008 RMK AO2 T01780105
KMGN 180055Z AUTO 30003KT 10SM CLR 18/10 A3008 RMK AO2 T01850105
KMGN 180035Z AUTO 31008KT 10SM CLR 18/10 A3007 RMK AO2 T01910103
KMGN 180015Z AUTO 32005KT 10SM CLR 19/10 A3007 RMK AO2 T01970103
KMGN 172355Z AUTO 33005KT 10SM CLR 20/10 A3007 RMK AO2 T02010102
KMGN 172335Z AUTO 32009G14KT 10SM CLR 20/10 A3007 RMK AO2 T02050101
KMGN 172315Z AUTO 33008KT 10SM CLR 20/09 A3007 RMK AO2 T02080096
KMGN 172255Z AUTO 31009G16KT 10SM CLR 20/09 A3007 RMK AO2 T02060096
KMGN 172235Z AUTO 31009G15KT 10SM CLR 21/10 A3007 RMK AO2 T02110097
KMGN 172215Z AUTO 33007G14KT 280V360 10SM CLR 21/10 A3008 RMK AO2 T02150099
KMGN 172155Z AUTO 35010G16KT 10SM SCT038 21/10 A3008 RMK AO2 T02160099
KMGN 172135Z AUTO 34007G14KT 10SM CLR 21/10 A3008 RMK AO2 T02120101
KMGN 172115Z AUTO 34010G14KT 10SM CLR 21/10 A3008 RMK AO2 T02160099
KMGN 172055Z AUTO 33007KT 10SM SCT039 21/09 A3007 RMK AO2 T02150093
KMGN 172035Z AUTO 33008G16KT 320V020 10SM SCT039 22/10 A3007 RMK AO2 T02200099
KMGN 172015Z AUTO 29008G15KT 10SM SCT039 22/10 A3007 RMK AO2 T02230101
KMGN 171955Z AUTO 33009G15KT 300V360 10SM CLR 21/09 A3007 RMK AO2 T02180092
KMGN 171935Z AUTO 32010KT 300V030 10SM SCT041 22/09 A3006 RMK AO2 T02210095
KMGN 171915Z AUTO 30008G17KT 250V310 10SM BKN041 22/09 A3006 RMK AO2 T02250096
KMGN 171855Z AUTO 33010G18KT 10SM BKN041 22/10 A3006 RMK AO2 T02240099
KMGN 171835Z AUTO 33010G17KT 10SM BKN038 OVC044 21/10 A3006 RMK AO2 T02120104
KMGN 171815Z AUTO 29013G18KT 10SM BKN038 21/11 A3006 RMK AO2 T02140109
KMGN 171755Z AUTO 28008G15KT 10SM BKN038 21/10 A3006 RMK AO2 T02190106
KMGN 171735Z AUTO 31012G17KT 10SM BKN038 22/10 A3005 RMK AO2 T02230107
KMGN 171715Z AUTO 28013G17KT 280V340 10SM BKN034 21/10 A3006 RMK AO2 T02160107
KMGN 171655Z AUTO 30008G14KT 270V340 10SM BKN034 21/10 A3006 RMK AO2 T02090107
KMGN 171635Z AUTO 33007G14KT 320V030 10SM BKN034 21/10 A3006 RMK AO2 T02170108
KMGN 171615Z AUTO 32011G17KT 10SM BKN032 20/10 A3005 RMK AO2 T02070106
KMGN 171555Z AUTO 32007G16KT 10SM SCT030 21/11 A3004 RMK AO2 T02130115
KMGN 171535Z AUTO 30009G14KT 280V340 10SM SCT030 21/11 A3004 RMK AO2 T02110115